Fort Simpson Airport
CYFS : rendu visible

Aérodrome :











RETROUVEZ-NOUS SUR...

 
LOGIN :

S'inscrire | Disclaimer

   EN    FR    IT 

 









Légende :    VFR   VFR Marginal   IFR   IFR Intensif   IFR Très Intensif
Visi : 
Plafond : 
>= 8 km
>= 3000ft
5 à 8 km
1000 à 3000 ft
1500m à 5 km
500 à 1000 ft
800 à 1500m
200 à 500 ft
< 800m
< 200 ft
Symboles :   Orages  Brouillard  Fortes neiges  Fortes précipitations  Vent > 20 kt






- Altitude de l'aérodrome : 555 ft
- Code IATA : YFS


CYFS - Fort Simpson

DERNIER METAR :
  • 201431Z 00000KT 15SM FEW065 SCT090 SCT110 BKN220 04/04 A2970 RMK SC1AC2AC1CI1 SLP066

METARs EXPIRÉS :
  • 201400Z 00000KT 15SM -RA FEW065 SCT085 BKN110 BKN190 04/04 A2969 RMK SC1AC3AC1CI1 CI TR SLP064
  • 201330Z 31004KT 260V350 15SM -RA FEW065 SCT090 BKN110 05/05 A2969 RMK SC1AC3AC1 SLP064
  • 201300Z 00000KT 15SM VCSH FEW066 FEW091 BKN100 05/05 A2969 RMK AC1AC1AC4 AC TR SHS SW SLP062
  • 201200Z 00000KT 15SM FEW075 BKN100 05/05 A2968 RMK AC1AC5 SLP061

TAF TAF CYFS
Valide du 20 à 12h jusqu'au 21 à 00h UTC


201138Z 2012/2024 VRB03KT P6SM SCT050 BKN090
TEMPO 2012/2016 3SM -SHRA BR SCT005 BKN040
PROB30 2012/2016 3/4SM TSRA BR BKN005 OVC030CB
FM201600 31006KT P6SM SCT012 BKN040
TEMPO 2016/2024 5SM -SHRA BR BKN012
PROB30 2022/2024 3SM TSRA BR SCT008 OVC030CB RMK NXT FCST BY 201800Z
FIR CZEG / Amérique du Nord



MET'MAP, la Météo Aéronautique d'un coup d'oeil ! - Copyright ORBIFLY Décembre 2007 - Disclaimer

ORBIFLY MET'MAP TEAM :

Programmation & Développement : Alexandra Zaïnal
Sur une idée originale de : Baudouin d'Aumeries
Assistance à la programmation : Marc-Olivier Méhu
Soutien technique & logistique : Manuel Goepfert

Contact : metmap@orbifly.com




SOURCES & CREDITS :

   NOAA       Earth
Advisory